createdAt,value
2017-09-24T00:00:41.162Z,0
2017-09-24T00:01:42.797Z,0
2017-09-24T00:02:44.364Z,0
2017-09-24T00:03:45.915Z,0
2017-09-24T00:04:47.430Z,0
2017-09-24T00:05:48.855Z,0
2017-09-24T00:06:50.429Z,0
2017-09-24T00:07:51.985Z,0
2017-09-24T00:08:54.017Z,0
2017-09-24T00:09:55.744Z,0
2017-09-24T00:10:57.331Z,0
2017-09-24T00:11:58.835Z,0
2017-09-24T00:13:00.472Z,0
2017-09-24T00:14:02.100Z,0
2017-09-24T00:15:03.786Z,0
2017-09-24T00:16:05.346Z,0
2017-09-24T00:17:06.933Z,0
2017-09-24T00:18:08.570Z,0
2017-09-24T00:19:10.160Z,0
2017-09-24T00:20:11.724Z,0
2017-09-24T00:21:13.312Z,0
2017-09-24T00:22:14.827Z,0
2017-09-24T00:23:16.517Z,0
2017-09-24T00:24:18.205Z,0
2017-09-24T00:25:19.869Z,0
2017-09-24T00:26:21.486Z,0
2017-09-24T00:27:23.110Z,0
2017-09-24T00:28:24.664Z,0
2017-09-24T00:29:26.234Z,0
2017-09-24T00:30:27.789Z,0
2017-09-24T00:31:29.356Z,0
2017-09-24T00:32:30.994Z,0
2017-09-24T00:33:32.695Z,0
2017-09-24T00:34:34.409Z,0
2017-09-24T00:35:36.079Z,0
2017-09-24T00:36:37.669Z,0
2017-09-24T00:37:39.254Z,0
2017-09-24T00:38:40.913Z,0
2017-09-24T00:39:42.502Z,0
2017-09-24T00:40:44.128Z,0
2017-09-24T00:41:45.762Z,0
2017-09-24T00:42:47.392Z,0
2017-09-24T00:43:49.007Z,0
2017-09-24T00:44:50.601Z,0
2017-09-24T00:45:52.197Z,0
2017-09-24T00:46:53.781Z,0
2017-09-24T00:47:55.426Z,0
2017-09-24T00:48:57.027Z,0
2017-09-24T00:49:58.652Z,0
2017-09-24T00:51:00.329Z,0
2017-09-24T00:52:01.905Z,0
2017-09-24T00:53:03.574Z,0
2017-09-24T00:54:05.648Z,0
2017-09-24T00:55:07.245Z,0
2017-09-24T00:56:08.855Z,0
2017-09-24T00:57:10.426Z,0
2017-09-24T00:58:11.994Z,0
2017-09-24T00:59:13.551Z,0
2017-09-24T01:00:15.159Z,0
2017-09-24T01:01:16.711Z,0
2017-09-24T01:02:18.257Z,0
2017-09-24T01:03:19.807Z,0
2017-09-24T01:04:21.482Z,0
2017-09-24T01:05:23.071Z,0
2017-09-24T01:06:24.624Z,0
2017-09-24T01:07:26.220Z,0
2017-09-24T01:08:27.832Z,0
2017-09-24T01:09:29.411Z,0
2017-09-24T01:10:30.987Z,0
2017-09-24T01:11:32.511Z,0
2017-09-24T01:12:34.116Z,0
2017-09-24T01:13:35.722Z,0
2017-09-24T01:14:37.371Z,0
2017-09-24T01:15:38.922Z,0
2017-09-24T01:16:40.493Z,0
2017-09-24T01:17:42.052Z,0
2017-09-24T01:18:43.602Z,0
2017-09-24T01:19:45.161Z,0
2017-09-24T01:20:46.827Z,0
2017-09-24T01:21:48.393Z,0
2017-09-24T01:22:49.984Z,0
2017-09-24T01:23:51.519Z,0
2017-09-24T01:24:53.152Z,0
2017-09-24T01:25:54.762Z,0
2017-09-24T01:26:56.403Z,0
2017-09-24T01:27:57.905Z,0
2017-09-24T01:28:59.516Z,0
2017-09-24T01:30:01.059Z,0
2017-09-24T01:31:02.627Z,0
2017-09-24T01:32:04.223Z,0
2017-09-24T01:33:05.877Z,0
2017-09-24T01:34:07.458Z,0
2017-09-24T01:35:09.685Z,0
2017-09-24T01:36:11.270Z,0
2017-09-24T01:37:12.872Z,0
2017-09-24T01:38:14.561Z,0
2017-09-24T01:39:16.134Z,0
2017-09-24T01:40:17.709Z,0
2017-09-24T01:41:19.299Z,0
2017-09-24T01:42:20.946Z,0
2017-09-24T01:43:22.545Z,0
2017-09-24T01:44:24.350Z,0
2017-09-24T01:45:26.066Z,0
2017-09-24T01:46:27.659Z,0
2017-09-24T01:47:29.318Z,0
2017-09-24T01:48:30.973Z,0
2017-09-24T01:49:32.631Z,0
2017-09-24T01:50:34.274Z,0
2017-09-24T01:51:35.971Z,0
2017-09-24T01:52:37.739Z,0
2017-09-24T01:53:39.408Z,0
2017-09-24T01:54:41.050Z,0
2017-09-24T01:55:42.728Z,0
2017-09-24T01:56:44.363Z,0
2017-09-24T01:57:45.989Z,0
2017-09-24T01:58:47.600Z,0
2017-09-24T01:59:49.189Z,0
2017-09-24T02:00:50.806Z,0
2017-09-24T02:01:52.509Z,0
2017-09-24T02:02:54.281Z,0
2017-09-24T02:03:55.870Z,0
2017-09-24T02:04:57.525Z,0
2017-09-24T02:05:59.107Z,0
2017-09-24T02:07:00.729Z,0
2017-09-24T02:08:02.445Z,0
2017-09-24T02:09:04.138Z,0
2017-09-24T02:10:05.738Z,0
2017-09-24T02:11:07.405Z,0
2017-09-24T02:12:09.055Z,0
2017-09-24T02:13:10.853Z,0
2017-09-24T02:14:12.706Z,0
2017-09-24T02:15:14.556Z,0
2017-09-24T02:16:16.552Z,0
2017-09-24T02:17:18.337Z,0
2017-09-24T02:18:20.038Z,0
2017-09-24T02:19:21.657Z,0
2017-09-24T02:20:23.384Z,0
2017-09-24T02:21:25.116Z,0
2017-09-24T02:22:26.865Z,0
2017-09-24T02:23:28.548Z,0
2017-09-24T02:24:30.261Z,0
2017-09-24T02:25:32.063Z,0
2017-09-24T02:26:33.748Z,0
2017-09-24T02:27:35.301Z,0
2017-09-24T02:28:36.840Z,0
2017-09-24T02:29:38.430Z,0
2017-09-24T02:30:39.996Z,0
2017-09-24T02:31:41.517Z,0
2017-09-24T02:32:43.057Z,0
2017-09-24T02:33:44.594Z,0
2017-09-24T02:34:46.128Z,0
2017-09-24T02:35:47.653Z,0
2017-09-24T02:36:49.227Z,0
2017-09-24T02:37:50.838Z,0
2017-09-24T02:38:52.435Z,0
2017-09-24T02:39:54.014Z,0
2017-09-24T02:40:55.671Z,0
2017-09-24T02:41:57.247Z,0
2017-09-24T02:42:58.814Z,0
2017-09-24T02:44:00.289Z,0
2017-09-24T02:45:02.860Z,0
2017-09-24T02:46:04.421Z,0
2017-09-24T02:47:06.116Z,0
2017-09-24T02:48:07.852Z,0
2017-09-24T02:49:09.415Z,0
2017-09-24T02:50:10.911Z,0
2017-09-24T02:51:12.486Z,0
2017-09-24T02:52:13.971Z,0
2017-09-24T02:53:15.502Z,0
2017-09-24T02:54:17.155Z,0
2017-09-24T02:55:18.713Z,0
2017-09-24T02:56:20.240Z,0
2017-09-24T02:57:21.778Z,0
2017-09-24T02:58:23.264Z,0
2017-09-24T02:59:24.815Z,0
2017-09-24T03:00:26.361Z,0
2017-09-24T03:01:27.950Z,0
2017-09-24T03:02:29.510Z,0
2017-09-24T03:03:31.037Z,0
2017-09-24T03:04:32.569Z,0
2017-09-24T03:05:34.072Z,0
2017-09-24T03:06:35.581Z,0
2017-09-24T03:07:37.079Z,0
2017-09-24T03:08:38.630Z,0
2017-09-24T03:09:40.195Z,0
2017-09-24T03:10:41.726Z,0
2017-09-24T03:11:43.235Z,0
2017-09-24T03:12:44.749Z,0
2017-09-24T03:13:46.270Z,0
2017-09-24T03:14:47.793Z,0
2017-09-24T03:15:49.295Z,0
2017-09-24T03:16:50.800Z,0
2017-09-24T03:17:52.346Z,0
2017-09-24T03:18:53.873Z,0
2017-09-24T03:19:55.410Z,0
2017-09-24T03:20:56.939Z,0
2017-09-24T03:21:58.506Z,0
2017-09-24T03:22:59.982Z,0
2017-09-24T03:24:01.515Z,0
2017-09-24T03:25:03.042Z,0
2017-09-24T03:26:04.588Z,0
2017-09-24T03:27:06.109Z,0
2017-09-24T03:28:07.628Z,0
2017-09-24T03:29:09.158Z,0
2017-09-24T03:30:10.706Z,0
2017-09-24T03:31:12.189Z,0
2017-09-24T03:32:13.707Z,0
2017-09-24T03:33:27.017Z,0
2017-09-24T03:34:28.023Z,0
2017-09-24T03:35:29.530Z,0
2017-09-24T03:36:31.058Z,0
2017-09-24T03:37:32.713Z,0
2017-09-24T03:38:34.234Z,0
2017-09-24T03:39:35.767Z,0
2017-09-24T03:40:37.328Z,0
2017-09-24T03:41:38.842Z,0
2017-09-24T03:42:42.201Z,0
2017-09-24T03:43:43.728Z,0
2017-09-24T03:44:45.249Z,0
2017-09-24T03:45:46.823Z,0
2017-09-24T03:46:48.388Z,0
2017-09-24T03:47:49.887Z,0
2017-09-24T03:48:51.408Z,0
2017-09-24T03:49:52.992Z,0
2017-09-24T03:50:54.540Z,0
2017-09-24T03:51:56.051Z,0
2017-09-24T03:52:57.632Z,0
2017-09-24T03:53:59.119Z,0
2017-09-24T03:55:00.592Z,0
2017-09-24T03:56:02.115Z,0
2017-09-24T03:57:03.718Z,0
2017-09-24T03:58:05.256Z,0
2017-09-24T03:59:06.777Z,0
2017-09-24T04:00:08.291Z,0
2017-09-24T04:01:09.815Z,0
2017-09-24T04:02:11.325Z,0
2017-09-24T04:03:12.836Z,0
2017-09-24T04:04:14.335Z,0
2017-09-24T04:05:15.858Z,0
2017-09-24T04:06:17.439Z,0
2017-09-24T04:07:18.954Z,0
2017-09-24T04:08:20.598Z,0
2017-09-24T04:09:22.139Z,0
2017-09-24T04:10:23.649Z,0
2017-09-24T04:11:25.143Z,0
2017-09-24T04:12:26.663Z,0
2017-09-24T04:13:28.184Z,0
2017-09-24T04:14:29.651Z,0
2017-09-24T04:15:31.211Z,0
2017-09-24T04:16:32.773Z,0
2017-09-24T04:17:34.411Z,0
2017-09-24T04:18:35.990Z,0
2017-09-24T04:19:37.507Z,0
2017-09-24T04:20:39.067Z,0
2017-09-24T04:21:40.684Z,0
2017-09-24T04:22:42.321Z,0
2017-09-24T04:23:43.830Z,0
2017-09-24T04:24:45.409Z,0
2017-09-24T04:25:47.137Z,0
2017-09-24T04:26:48.592Z,0
2017-09-24T04:27:50.135Z,0
2017-09-24T04:28:51.809Z,0
2017-09-24T04:29:53.306Z,0
2017-09-24T04:30:54.855Z,0
2017-09-24T04:31:56.362Z,0
2017-09-24T04:32:57.883Z,0
2017-09-24T04:33:59.485Z,0
2017-09-24T04:35:00.982Z,0
2017-09-24T04:36:02.545Z,0
2017-09-24T04:37:04.130Z,0
2017-09-24T04:38:05.669Z,0
2017-09-24T04:39:07.162Z,4
2017-09-24T04:40:08.766Z,0
2017-09-24T04:41:10.327Z,4
2017-09-24T04:42:11.893Z,4
2017-09-24T04:43:13.409Z,4
2017-09-24T04:44:14.949Z,8
2017-09-24T04:45:16.504Z,4
2017-09-24T04:46:18.017Z,8
2017-09-24T04:47:19.614Z,8
2017-09-24T04:48:21.092Z,12
2017-09-24T04:49:22.633Z,12
2017-09-24T04:50:24.157Z,16
2017-09-24T04:51:25.649Z,16
2017-09-24T04:52:27.256Z,20
2017-09-24T04:53:28.787Z,24
2017-09-24T04:54:30.279Z,28
2017-09-24T04:55:31.828Z,28
2017-09-24T04:56:33.340Z,32
2017-09-24T04:57:34.882Z,32
2017-09-24T04:58:36.422Z,40
2017-09-24T04:59:37.968Z,44
2017-09-24T05:00:39.459Z,44
2017-09-24T05:01:40.968Z,52
2017-09-24T05:02:42.521Z,56
2017-09-24T05:03:44.033Z,56
2017-09-24T05:04:45.590Z,60
2017-09-24T05:05:47.121Z,68
2017-09-24T05:06:48.683Z,68
2017-09-24T05:07:50.259Z,76
2017-09-24T05:08:51.792Z,80
2017-09-24T05:09:53.330Z,84
2017-09-24T05:10:54.839Z,84
2017-09-24T05:11:56.422Z,92
2017-09-24T05:12:57.970Z,96
2017-09-24T05:13:59.486Z,100
2017-09-24T05:15:01.007Z,108
2017-09-24T05:16:02.554Z,112
2017-09-24T05:17:04.071Z,116
2017-09-24T05:18:05.595Z,120
2017-09-24T05:19:07.188Z,128
2017-09-24T05:20:09.199Z,132
2017-09-24T05:21:10.752Z,136
2017-09-24T05:22:12.272Z,144
2017-09-24T05:23:13.817Z,156
2017-09-24T05:24:15.356Z,164
2017-09-24T05:25:16.920Z,184
2017-09-24T05:26:18.404Z,196
2017-09-24T05:27:19.952Z,208
2017-09-24T05:28:21.437Z,224
2017-09-24T05:29:22.938Z,240
2017-09-24T05:30:24.746Z,256
2017-09-24T05:31:26.251Z,272
2017-09-24T05:32:27.788Z,292
2017-09-24T05:33:29.350Z,312
2017-09-24T05:34:30.843Z,332
2017-09-24T05:35:32.357Z,348
2017-09-24T05:36:33.853Z,364
2017-09-24T05:37:35.442Z,376
2017-09-24T05:38:36.932Z,392
2017-09-24T05:39:38.496Z,408
2017-09-24T05:40:40.022Z,424
2017-09-24T05:41:41.570Z,436
2017-09-24T05:42:43.077Z,448
2017-09-24T05:43:44.598Z,456
2017-09-24T05:44:46.189Z,456
2017-09-24T05:45:52.822Z,452
2017-09-24T05:46:54.241Z,452
2017-09-24T05:47:55.773Z,452
2017-09-24T05:48:57.354Z,452
2017-09-24T05:49:58.892Z,456
2017-09-24T05:51:00.453Z,484
2017-09-24T05:52:01.994Z,516
2017-09-24T05:53:03.475Z,548
2017-09-24T05:54:04.987Z,572
2017-09-24T05:55:06.614Z,592
2017-09-24T05:56:08.149Z,616
2017-09-24T05:57:09.710Z,628
2017-09-24T05:58:11.355Z,652
2017-09-24T05:59:12.855Z,672
2017-09-24T06:00:14.365Z,696
2017-09-24T06:01:15.924Z,708
2017-09-24T06:02:17.468Z,720
2017-09-24T06:03:19.006Z,744
2017-09-24T06:04:20.515Z,772
2017-09-24T06:05:22.069Z,808
2017-09-24T06:06:23.545Z,840
2017-09-24T06:07:25.119Z,872
2017-09-24T06:08:26.722Z,904
2017-09-24T06:09:28.248Z,940
2017-09-24T06:10:29.815Z,964
2017-09-24T06:11:31.336Z,992
2017-09-24T06:12:32.857Z,1020
2017-09-24T06:13:34.375Z,1044
2017-09-24T06:14:35.899Z,1068
2017-09-24T06:15:38.547Z,1084
2017-09-24T06:16:40.094Z,1112
2017-09-24T06:17:41.749Z,1144
2017-09-24T06:18:43.358Z,1180
2017-09-24T06:19:44.927Z,1224
2017-09-24T06:20:46.633Z,1260
2017-09-24T06:21:48.390Z,1284
2017-09-24T06:22:49.971Z,1300
2017-09-24T06:23:52.469Z,1316
2017-09-24T06:24:54.157Z,1340
2017-09-24T06:25:55.845Z,1380
2017-09-24T06:26:57.462Z,1424
2017-09-24T06:27:59.003Z,1472
2017-09-24T06:29:00.593Z,1524
2017-09-24T06:30:02.139Z,1564
2017-09-24T06:31:03.721Z,1592
2017-09-24T06:32:05.365Z,1608
2017-09-24T06:33:07.113Z,1608
2017-09-24T06:34:08.704Z,1600
2017-09-24T06:35:10.322Z,1588
2017-09-24T06:36:11.928Z,1584
2017-09-24T06:37:13.630Z,1588
2017-09-24T06:38:15.202Z,1596
2017-09-24T06:39:16.809Z,1608
2017-09-24T06:40:18.404Z,1612
2017-09-24T06:41:20.132Z,1612
2017-09-24T06:42:21.779Z,1612
2017-09-24T06:43:23.539Z,1632
2017-09-24T06:44:25.061Z,1656
2017-09-24T06:45:26.628Z,1680
2017-09-24T06:46:28.203Z,1708
2017-09-24T06:47:29.921Z,1744
2017-09-24T06:48:31.523Z,1768
2017-09-24T06:49:33.081Z,1780
2017-09-24T06:50:34.646Z,1776
2017-09-24T06:51:36.184Z,1752
2017-09-24T06:52:37.769Z,1716
2017-09-24T06:53:39.340Z,1664
2017-09-24T06:54:40.912Z,1588
2017-09-24T06:55:42.517Z,1476
2017-09-24T06:56:44.074Z,1348
2017-09-24T06:57:45.686Z,1240
2017-09-24T06:58:47.236Z,1156
2017-09-24T06:59:48.820Z,1084
2017-09-24T07:00:50.389Z,1016
2017-09-24T07:01:52.147Z,968
2017-09-24T07:02:53.653Z,948
2017-09-24T07:03:55.169Z,940
2017-09-24T07:04:56.680Z,944
2017-09-24T07:05:58.285Z,952
2017-09-24T07:06:59.816Z,960
2017-09-24T07:08:01.349Z,960
2017-09-24T07:09:02.962Z,956
2017-09-24T07:10:04.545Z,956
2017-09-24T07:11:06.475Z,988
2017-09-24T07:12:08.107Z,1040
2017-09-24T07:13:09.812Z,1104
2017-09-24T07:14:11.433Z,1156
2017-09-24T07:15:13.105Z,1200
2017-09-24T07:16:15.010Z,1232
2017-09-24T07:17:17.493Z,1272
2017-09-24T07:18:20.154Z,1320
2017-09-24T07:19:23.918Z,1372
2017-09-24T07:20:25.824Z,1428
2017-09-24T07:21:27.330Z,1500
2017-09-24T07:22:28.874Z,1588
2017-09-24T07:23:30.459Z,1676
2017-09-24T07:24:32.076Z,1740
2017-09-24T07:25:33.658Z,1800
2017-09-24T07:26:35.254Z,1852
2017-09-24T07:27:36.974Z,1896
2017-09-24T07:28:38.575Z,1936
2017-09-24T07:29:40.123Z,1956
2017-09-24T07:30:41.688Z,1968
2017-09-24T07:31:45.782Z,1960
2017-09-24T07:32:47.646Z,1936
2017-09-24T07:33:49.578Z,1908
2017-09-24T07:34:52.219Z,1856
2017-09-24T07:35:53.838Z,1800
2017-09-24T07:36:55.563Z,1768
2017-09-24T07:37:57.452Z,1720
2017-09-24T07:39:01.783Z,1604
2017-09-24T07:40:03.516Z,1364
2017-09-24T07:41:05.253Z,1152
2017-09-24T07:42:06.980Z,1008
2017-09-24T07:43:09.176Z,952
2017-09-24T07:44:11.023Z,932
2017-09-24T07:45:12.923Z,992
2017-09-24T07:46:14.805Z,1068
2017-09-24T07:47:16.552Z,1080
2017-09-24T07:48:18.314Z,1080
2017-09-24T07:49:20.172Z,1128
2017-09-24T07:50:21.797Z,1220
2017-09-24T07:51:26.569Z,1312
2017-09-24T07:52:28.257Z,1420
2017-09-24T07:53:29.804Z,1548
2017-09-24T07:54:31.364Z,1672
2017-09-24T07:55:33.093Z,1792
2017-09-24T07:56:34.946Z,1900
2017-09-24T07:57:36.703Z,1996
2017-09-24T07:58:38.702Z,2072
2017-09-24T07:59:41.144Z,2100
2017-09-24T08:00:43.282Z,2108
2017-09-24T08:01:45.270Z,2104
2017-09-24T08:02:47.380Z,2100
2017-09-24T08:03:50.043Z,2104
2017-09-24T08:04:53.819Z,2164
2017-09-24T08:05:56.219Z,2252
2017-09-24T08:06:58.509Z,2308
2017-09-24T08:08:01.269Z,2304
2017-09-24T08:09:03.415Z,2256
2017-09-24T08:10:05.776Z,2216
2017-09-24T08:11:07.833Z,2224
2017-09-24T08:12:10.443Z,2284
2017-09-24T08:13:13.222Z,2372
2017-09-24T08:14:14.851Z,2520
2017-09-24T08:15:17.052Z,2740
2017-09-24T08:16:19.032Z,3000
2017-09-24T08:17:21.180Z,3220
2017-09-24T08:18:23.244Z,3388
2017-09-24T08:19:24.880Z,3532
2017-09-24T08:20:26.574Z,3700
2017-09-24T08:21:28.987Z,3896
2017-09-24T08:22:42.358Z,4100
2017-09-24T08:23:45.634Z,4300
2017-09-24T08:24:47.668Z,4344
2017-09-24T08:25:49.591Z,4264
2017-09-24T08:26:51.598Z,4188
2017-09-24T08:27:53.401Z,4236
2017-09-24T08:28:55.135Z,4412
2017-09-24T08:29:56.817Z,4684
2017-09-24T08:30:58.424Z,4988
2017-09-24T08:32:00.324Z,5196
2017-09-24T08:33:02.052Z,5284
2017-09-24T08:34:03.821Z,5332
2017-09-24T08:35:05.555Z,5380
2017-09-24T08:36:07.304Z,5404
2017-09-24T08:37:09.014Z,5464
2017-09-24T08:38:10.878Z,5472
2017-09-24T08:39:12.639Z,5708
2017-09-24T08:40:14.457Z,5836
2017-09-24T08:41:16.219Z,5904
2017-09-24T08:42:18.137Z,5920
2017-09-24T08:43:19.816Z,5852
2017-09-24T08:44:22.584Z,5756
2017-09-24T08:45:24.381Z,5644
2017-09-24T08:46:26.126Z,5492
2017-09-24T08:47:28.040Z,5324
2017-09-24T08:48:29.833Z,5152
2017-09-24T08:49:31.568Z,4968
2017-09-24T08:50:33.904Z,4800
2017-09-24T08:51:35.583Z,4708
2017-09-24T08:52:43.371Z,4672
2017-09-24T08:53:45.840Z,4624
2017-09-24T08:54:47.784Z,4556
2017-09-24T08:55:49.525Z,4452
2017-09-24T08:56:51.353Z,4328
2017-09-24T08:57:53.121Z,4240
2017-09-24T08:58:54.854Z,4220
2017-09-24T08:59:56.929Z,4256
2017-09-24T09:00:58.895Z,4308
2017-09-24T09:02:00.678Z,4368
2017-09-24T09:03:02.465Z,4436
2017-09-24T09:04:04.683Z,4508
2017-09-24T09:05:06.550Z,4556
2017-09-24T09:06:08.261Z,4540
2017-09-24T09:07:10.197Z,4520
2017-09-24T09:08:11.868Z,4524
2017-09-24T09:09:13.533Z,4580
2017-09-24T09:10:15.299Z,4604
2017-09-24T09:11:17.614Z,4596
2017-09-24T09:12:19.421Z,4584
2017-09-24T09:13:22.230Z,4572
2017-09-24T09:14:23.966Z,4600
2017-09-24T09:15:25.709Z,4640
2017-09-24T09:16:27.543Z,4760
2017-09-24T09:17:29.290Z,4936
2017-09-24T09:18:31.018Z,5144
2017-09-24T09:19:32.798Z,5316
2017-09-24T09:20:35.183Z,5448
2017-09-24T09:21:38.599Z,5560
2017-09-24T09:22:40.591Z,5664
2017-09-24T09:23:42.486Z,5768
2017-09-24T09:24:44.407Z,5884
2017-09-24T09:25:46.792Z,6016
2017-09-24T09:26:48.866Z,6152
2017-09-24T09:27:50.869Z,6280
2017-09-24T09:28:52.614Z,6420
2017-09-24T09:29:54.415Z,6616
2017-09-24T09:30:56.579Z,6908
2017-09-24T09:31:58.372Z,7284
2017-09-24T09:33:00.971Z,7668
2017-09-24T09:34:03.710Z,7712
2017-09-24T09:36:21.438Z,7084
2017-09-24T09:37:39.457Z,6684
2017-09-24T09:38:43.788Z,6496
2017-09-24T09:40:03.673Z,6324
2017-09-24T09:41:06.893Z,6144
2017-09-24T09:42:11.298Z,5988
2017-09-24T09:43:13.708Z,5884
2017-09-24T09:44:16.112Z,5864
2017-09-24T09:45:20.062Z,5884
2017-09-24T09:46:22.484Z,5904
2017-09-24T09:47:24.986Z,5980
2017-09-24T09:48:29.723Z,6052
2017-09-24T09:49:35.868Z,6068
2017-09-24T09:50:38.294Z,5988
2017-09-24T09:51:43.244Z,5856
2017-09-24T09:52:45.755Z,5632
2017-09-24T09:53:48.755Z,5580
2017-09-24T09:54:51.227Z,5832
2017-09-24T09:55:53.255Z,6060
2017-09-24T09:56:58.270Z,6380
2017-09-24T09:58:09.565Z,6696
2017-09-24T09:59:08.558Z,7020
2017-09-24T10:00:30.625Z,7312
2017-09-24T10:01:32.820Z,7564
2017-09-24T10:02:36.825Z,7856
2017-09-24T10:03:40.051Z,8272
2017-09-24T10:04:42.787Z,8656
2017-09-24T10:05:44.486Z,8988
2017-09-24T10:06:46.401Z,9232
2017-09-24T10:07:48.353Z,9408
2017-09-24T10:08:50.044Z,9528
2017-09-24T10:09:52.263Z,9496
2017-09-24T10:10:54.180Z,9340
2017-09-24T10:11:56.248Z,9260
2017-09-24T10:12:58.467Z,9292
2017-09-24T10:14:00.374Z,9324
2017-09-24T10:15:02.124Z,9348
2017-09-24T10:16:03.923Z,9384
2017-09-24T10:17:05.617Z,9492
2017-09-24T10:18:07.605Z,9620
2017-09-24T10:19:09.861Z,9720
2017-09-24T10:20:11.609Z,10096
2017-09-24T10:21:13.687Z,10428
2017-09-24T10:22:15.484Z,10620
2017-09-24T10:23:17.600Z,10472
2017-09-24T10:24:19.441Z,10096
2017-09-24T10:25:21.196Z,9728
2017-09-24T10:26:23.027Z,9424
2017-09-24T10:27:24.927Z,9300
2017-09-24T10:28:26.728Z,9272
2017-09-24T10:29:28.763Z,9204
2017-09-24T10:30:30.619Z,9268
2017-09-24T10:31:32.382Z,9356
2017-09-24T10:32:34.005Z,9444
2017-09-24T10:33:36.461Z,9508
2017-09-24T10:34:38.203Z,9492
2017-09-24T10:35:39.829Z,9520
2017-09-24T10:36:43.843Z,9984
2017-09-24T10:37:45.507Z,10456
2017-09-24T10:38:47.417Z,10888
2017-09-24T10:39:49.222Z,11140
2017-09-24T10:40:51.086Z,11160
2017-09-24T10:41:53.008Z,10984
2017-09-24T10:42:55.085Z,10688
2017-09-24T10:44:06.917Z,10188
2017-09-24T10:45:50.337Z,9552
2017-09-24T10:46:52.593Z,10148
2017-09-24T10:47:55.662Z,10728
2017-09-24T10:48:57.754Z,10776
2017-09-24T10:50:05.227Z,10440
2017-09-24T10:51:07.024Z,10072
2017-09-24T10:52:09.387Z,9864
2017-09-24T10:53:20.765Z,10028
2017-09-24T10:54:28.049Z,10172
2017-09-24T10:56:28.751Z,9216
2017-09-24T10:57:30.456Z,8360
2017-09-24T10:58:33.554Z,7952
2017-09-24T10:59:38.758Z,7472
2017-09-24T11:00:43.182Z,6976
2017-09-24T11:01:45.211Z,6580
2017-09-24T11:02:47.458Z,6408
2017-09-24T11:03:49.458Z,6368
2017-09-24T11:04:51.593Z,6236
2017-09-24T11:05:53.847Z,6132
2017-09-24T11:06:56.447Z,5980
2017-09-24T11:07:59.179Z,5848
2017-09-24T11:09:01.152Z,5484
2017-09-24T11:10:03.373Z,5052
2017-09-24T11:11:04.967Z,4788
2017-09-24T11:12:07.627Z,4868
2017-09-24T11:13:09.823Z,5176
2017-09-24T11:14:11.522Z,5372
2017-09-24T11:15:13.250Z,5388
2017-09-24T11:16:15.297Z,5316
2017-09-24T11:17:17.117Z,5212
2017-09-24T11:18:19.975Z,5056
2017-09-24T11:19:22.077Z,4896
2017-09-24T11:20:24.454Z,4752
2017-09-24T11:22:16.772Z,4736
2017-09-24T11:23:18.422Z,4844
2017-09-24T11:24:20.228Z,4900
2017-09-24T11:25:21.961Z,4980
2017-09-24T11:26:23.841Z,5112
2017-09-24T11:27:26.227Z,5308
2017-09-24T11:28:27.781Z,5572
2017-09-24T11:29:29.334Z,5976
2017-09-24T11:30:30.838Z,6368
2017-09-24T11:31:32.580Z,6608
2017-09-24T11:32:34.374Z,6820
2017-09-24T11:33:36.280Z,6992
2017-09-24T11:34:38.050Z,7112
2017-09-24T11:35:40.210Z,7176
2017-09-24T11:36:42.823Z,7140
2017-09-24T11:37:44.693Z,7052
2017-09-24T11:38:46.301Z,6892
2017-09-24T11:39:48.002Z,6768
2017-09-24T11:40:50.107Z,6552
2017-09-24T11:41:52.112Z,6404
2017-09-24T11:42:53.837Z,6276
2017-09-24T11:43:55.552Z,6208
2017-09-24T11:44:57.632Z,6276
2017-09-24T11:45:59.281Z,6352
2017-09-24T11:47:01.399Z,6264
2017-09-24T11:48:03.230Z,6236
2017-09-24T11:49:04.797Z,6256
2017-09-24T11:50:07.291Z,6244
2017-09-24T11:51:08.999Z,6028
2017-09-24T11:52:10.589Z,5740
2017-09-24T11:53:12.149Z,5456
2017-09-24T11:54:14.739Z,5224
2017-09-24T11:55:16.577Z,5116
2017-09-24T11:56:18.178Z,5084
2017-09-24T11:57:21.529Z,5080
2017-09-24T11:58:23.147Z,5112
2017-09-24T11:59:25.138Z,5080
2017-09-24T12:00:26.692Z,5000
2017-09-24T12:01:28.354Z,4844
2017-09-24T12:02:29.982Z,4652
2017-09-24T12:03:31.859Z,4480
2017-09-24T12:04:34.190Z,4400
2017-09-24T12:05:36.141Z,4380
2017-09-24T12:06:38.230Z,4416
2017-09-24T12:07:40.005Z,4404
2017-09-24T12:08:42.212Z,4320
2017-09-24T12:09:44.119Z,4244
2017-09-24T12:10:45.854Z,4164
2017-09-24T12:11:47.441Z,4052
2017-09-24T12:12:48.969Z,3900
2017-09-24T12:13:51.002Z,3700
2017-09-24T12:14:52.517Z,3504
2017-09-24T12:15:54.256Z,3372
2017-09-24T12:16:56.052Z,3200
2017-09-24T12:17:57.829Z,3016
2017-09-24T12:18:59.747Z,2836
2017-09-24T12:20:01.860Z,2688
2017-09-24T12:21:03.822Z,2580
2017-09-24T12:22:05.592Z,2496
2017-09-24T12:23:07.517Z,2460
2017-09-24T12:24:09.684Z,2464
2017-09-24T12:25:11.692Z,2524
2017-09-24T12:26:13.887Z,2620
2017-09-24T12:27:15.430Z,2748
2017-09-24T12:28:17.436Z,2956
2017-09-24T12:29:19.361Z,3232
2017-09-24T12:30:21.646Z,3516
2017-09-24T12:31:23.846Z,3716
2017-09-24T12:32:27.290Z,3880
2017-09-24T12:33:29.414Z,4048
2017-09-24T12:34:31.526Z,4144
2017-09-24T12:35:33.399Z,4104
2017-09-24T12:36:35.106Z,4024
2017-09-24T12:37:37.623Z,4004
2017-09-24T12:38:39.501Z,4012
2017-09-24T12:39:41.779Z,4124
2017-09-24T12:40:45.822Z,4204
2017-09-24T12:43:21.652Z,4124
2017-09-24T12:44:29.330Z,3984
2017-09-24T12:45:32.121Z,3864
2017-09-24T12:46:33.850Z,3768
2017-09-24T12:47:35.353Z,3688
2017-09-24T12:48:37.329Z,3652
2017-09-24T12:49:38.999Z,3644
2017-09-24T12:50:43.408Z,3680
2017-09-24T12:51:45.463Z,3684
2017-09-24T12:52:47.368Z,3676
2017-09-24T12:53:49.662Z,3664
2017-09-24T12:54:51.411Z,3656
2017-09-24T12:55:53.497Z,3560
2017-09-24T12:56:56.687Z,3380
2017-09-24T12:57:58.961Z,3172
2017-09-24T12:59:00.472Z,2968
2017-09-24T13:00:02.116Z,2792
2017-09-24T13:01:03.618Z,2672
2017-09-24T13:02:05.174Z,2592
2017-09-24T13:03:06.726Z,2548
2017-09-24T13:04:08.283Z,2548
2017-09-24T13:05:10.820Z,2540
2017-09-24T13:06:12.411Z,2504
2017-09-24T13:07:14.236Z,2468
2017-09-24T13:08:17.834Z,2464
2017-09-24T13:09:19.328Z,2532
2017-09-24T13:10:20.826Z,2668
2017-09-24T13:11:23.336Z,2836
2017-09-24T13:12:24.849Z,3016
2017-09-24T13:13:26.353Z,3152
2017-09-24T13:14:27.991Z,3252
2017-09-24T13:15:30.566Z,3292
2017-09-24T13:16:33.758Z,3324
2017-09-24T13:17:35.191Z,3376
2017-09-24T13:18:36.700Z,3440
2017-09-24T13:19:38.166Z,3504
2017-09-24T13:20:39.717Z,3544
2017-09-24T13:21:41.194Z,3608
2017-09-24T13:22:43.966Z,3672
2017-09-24T13:23:45.485Z,3708
2017-09-24T13:24:46.966Z,3728
2017-09-24T13:25:48.392Z,3776
2017-09-24T13:26:49.854Z,3856
2017-09-24T13:27:51.272Z,3972
2017-09-24T13:28:52.769Z,4112
2017-09-24T13:29:54.244Z,4252
2017-09-24T13:30:55.691Z,4432
2017-09-24T13:31:58.311Z,4608
2017-09-24T13:33:00.149Z,4748
2017-09-24T13:34:01.860Z,4828
2017-09-24T13:35:03.373Z,4860
2017-09-24T13:36:05.118Z,4868
2017-09-24T13:37:06.741Z,4840
2017-09-24T13:38:08.190Z,4772
2017-09-24T13:39:09.730Z,4636
2017-09-24T13:40:11.199Z,4436
2017-09-24T13:41:12.610Z,4180
2017-09-24T13:42:15.291Z,3900
2017-09-24T13:43:16.889Z,3624
2017-09-24T13:44:18.566Z,3348
2017-09-24T13:45:20.126Z,3080
2017-09-24T13:46:22.700Z,2840
2017-09-24T13:47:24.428Z,2632
2017-09-24T13:48:26.043Z,2452
2017-09-24T13:49:27.647Z,2292
2017-09-24T13:50:29.424Z,2160
2017-09-24T13:51:32.107Z,2060
2017-09-24T13:52:34.746Z,1992
2017-09-24T13:53:36.347Z,1972
2017-09-24T13:54:37.793Z,1992
2017-09-24T13:55:39.306Z,2052
2017-09-24T13:56:41.877Z,2132
2017-09-24T13:57:43.416Z,2192
2017-09-24T13:58:44.928Z,2240
2017-09-24T13:59:46.398Z,2268
2017-09-24T14:00:47.874Z,2276
2017-09-24T14:01:49.343Z,2272
2017-09-24T14:02:50.795Z,2236
2017-09-24T14:03:52.310Z,2188
2017-09-24T14:04:53.776Z,2144
2017-09-24T14:05:55.272Z,2128
2017-09-24T14:06:56.742Z,2156
2017-09-24T14:07:58.227Z,2220
2017-09-24T14:08:59.681Z,2316
2017-09-24T14:10:02.178Z,2400
2017-09-24T14:11:03.680Z,2464
2017-09-24T14:12:05.286Z,2504
2017-09-24T14:13:07.027Z,2508
2017-09-24T14:14:08.537Z,2484
2017-09-24T14:15:11.140Z,2440
2017-09-24T14:16:12.827Z,2380
2017-09-24T14:17:14.420Z,2332
2017-09-24T14:18:18.171Z,2300
2017-09-24T14:19:19.812Z,2272
2017-09-24T14:20:21.312Z,2264
2017-09-24T14:21:23.040Z,2264
2017-09-24T14:22:24.411Z,2268